Time;durP1;ratioP1;P1;durP2;ratioP2;P2;SDS_P1;SDS_P2;PMS_P1;PMS_P2;Temp;Humidity;BMP_temperature;BMP_pressure;BME280_temperature;BME280_humidity;BME280_pressure;Samples;Min_cycle;Max_cycle;Signal;HPM_P1;HPM_P2
2021/07/21 00:00:19;;;;;;;8.63;7.38;;;;;;;18.76;100.00;101470.47;4901440;29;20221;-75
2021/07/21 00:02:44;;;;;;;9.30;7.40;;;;;;;18.74;100.00;101461.72;4902105;29;20214;-75
2021/07/21 00:05:11;;;;;;;11.40;7.88;;;;;;;18.74;100.00;101465.25;4933170;29;20192;-75
2021/07/21 00:07:36;;;;;;;9.65;7.53;;;;;;;18.59;100.00;101467.50;4933867;29;20175;-74
2021/07/21 00:10:03;;;;;;;9.80;7.70;;;;;;;18.57;100.00;101465.06;4916340;29;20545;-75
2021/07/21 00:15:18;;;;;;;9.05;7.72;;;;;;;18.58;100.00;101468.63;4930131;28;20194;-75
2021/07/21 00:17:47;;;;;;;8.93;7.35;;;;;;;18.80;100.00;101463.22;4933016;29;20311;-78
2021/07/21 00:20:15;;;;;;;9.15;7.30;;;;;;;18.80;100.00;101457.72;4917165;29;20212;-75
2021/07/21 00:22:48;;;;;;;9.75;7.38;;;;;;;18.86;100.00;101454.53;4933777;29;20191;-74
2021/07/21 00:25:14;;;;;;;9.77;7.78;;;;;;;18.93;100.00;101453.00;4916587;29;20202;-75
2021/07/21 00:27:43;;;;;;;9.52;8.02;;;;;;;18.81;100.00;101448.31;4898568;29;20231;-75
2021/07/21 00:30:11;;;;;;;9.98;7.80;;;;;;;18.91;100.00;101449.75;4914613;29;20198;-74
2021/07/21 00:32:37;;;;;;;9.85;7.90;;;;;;;18.70;100.00;101444.16;4917668;29;20179;-74
2021/07/21 00:35:07;;;;;;;10.05;7.57;;;;;;;18.61;100.00;101444.06;4917507;29;20190;-75
2021/07/21 00:37:43;;;;;;;10.93;7.90;;;;;;;18.59;100.00;101446.31;4932465;29;20220;-76
2021/07/21 00:40:13;;;;;;;10.73;7.70;;;;;;;18.78;100.00;101448.94;4917187;29;20218;-74
2021/07/21 00:42:52;;;;;;;8.75;7.28;;;;;;;18.80;100.00;101441.19;4917017;29;20180;-75
2021/07/21 00:45:28;;;;;;;8.70;7.65;;;;;;;18.66;100.00;101441.22;4890147;29;20184;-76
2021/07/21 00:48:12;;;;;;;10.10;7.97;;;;;;;18.66;100.00;101440.38;4933893;29;20650;-75
2021/07/21 00:50:39;;;;;;;10.90;7.88;;;;;;;18.85;100.00;101444.66;4932517;29;20274;-75
2021/07/21 00:53:09;;;;;;;11.82;8.05;;;;;;;18.60;100.00;101441.59;4932758;29;20207;-76
2021/07/21 00:55:35;;;;;;;12.15;7.93;;;;;;;18.77;100.00;101441.81;4916886;29;20237;-75
2021/07/21 00:58:03;;;;;;;9.82;8.00;;;;;;;18.67;100.00;101437.31;4900792;29;20175;-76
2021/07/21 01:00:29;;;;;;;8.40;7.50;;;;;;;18.72;100.00;101444.69;4932211;29;20793;-75
2021/07/21 01:02:56;;;;;;;9.07;7.65;;;;;;;18.71;100.00;101448.53;4932842;29;20763;-75
2021/07/21 01:05:31;;;;;;;8.55;7.43;;;;;;;18.86;100.00;101438.00;4932447;29;20190;-75
2021/07/21 01:08:04;;;;;;;8.93;7.70;;;;;;;18.83;100.00;101446.91;4919176;29;20202;-76
2021/07/21 01:11:00;;;;;;;10.18;7.95;;;;;;;18.61;100.00;101446.00;4918321;29;20740;-75
2021/07/21 01:13:32;;;;;;;9.80;7.75;;;;;;;18.54;100.00;101445.59;4919524;29;20211;-75
2021/07/21 01:16:05;;;;;;;9.48;8.07;;;;;;;18.71;100.00;101449.34;4901121;29;20216;-76
2021/07/21 01:18:39;;;;;;;9.60;7.70;;;;;;;18.73;100.00;101440.78;4932443;29;20705;-74
2021/07/21 01:21:08;;;;;;;11.20;8.38;;;;;;;18.70;100.00;101444.16;4917532;29;20659;-75
2021/07/21 01:23:51;;;;;;;10.70;8.13;;;;;;;18.82;100.00;101456.28;4932685;29;20218;-75
2021/07/21 01:26:27;;;;;;;12.35;7.57;;;;;;;18.73;100.00;101454.56;4932175;29;20251;-74
2021/07/21 01:28:53;;;;;;;8.52;7.63;;;;;;;18.46;100.00;101451.81;4916323;29;20694;-75
2021/07/21 01:31:28;;;;;;;8.82;7.93;;;;;;;18.62;100.00;101466.88;4948142;29;20433;-75
2021/07/21 01:33:55;;;;;;;8.65;7.75;;;;;;;18.66;100.00;101454.13;4932541;29;20206;-75
2021/07/21 01:36:29;;;;;;;10.82;7.85;;;;;;;18.72;100.00;101455.69;4916460;29;20228;-75
2021/07/21 01:39:03;;;;;;;10.15;7.78;;;;;;;18.98;100.00;101455.69;4900789;29;20211;-76
2021/07/21 01:41:36;;;;;;;9.52;7.93;;;;;;;19.04;100.00;101454.44;4918085;29;20237;-76
2021/07/21 01:44:22;;;;;;;10.27;8.02;;;;;;;19.08;100.00;101458.25;4917060;29;20204;-75
2021/07/21 01:46:51;;;;;;;8.63;7.57;;;;;;;18.85;100.00;101458.44;4897593;29;20242;-75
2021/07/21 01:49:21;;;;;;;9.15;8.18;;;;;;;18.80;100.00;101458.53;4898153;29;20624;-75
2021/07/21 01:51:50;;;;;;;9.82;7.78;;;;;;;18.80;100.00;101460.47;4916341;29;20224;-75
2021/07/21 01:54:17;;;;;;;10.55;8.32;;;;;;;18.78;100.00;101465.47;4933027;29;20216;-75
2021/07/21 01:57:01;;;;;;;12.00;8.50;;;;;;;18.66;100.00;101457.72;4922048;29;20253;-75
2021/07/21 01:59:27;;;;;;;9.73;7.97;;;;;;;18.51;100.00;101459.94;4918978;29;20212;-75
2021/07/21 02:02:18;;;;;;;10.38;8.10;;;;;;;18.81;100.00;101456.56;4909378;29;20702;-75
2021/07/21 02:04:56;;;;;;;11.35;8.18;;;;;;;18.52;100.00;101462.41;4922806;29;20179;-75
2021/07/21 02:07:22;;;;;;;11.02;8.35;;;;;;;18.49;100.00;101456.69;4934802;29;20224;-75
2021/07/21 02:09:49;;;;;;;12.38;8.85;;;;;;;18.54;100.00;101459.34;4903498;29;20215;-76
2021/07/21 02:12:34;;;;;;;9.75;7.47;;;;;;;18.47;100.00;101464.44;4922595;29;20226;-75
2021/07/21 02:15:00;;;;;;;10.93;8.13;;;;;;;18.50;100.00;101464.66;4916980;29;20187;-76
2021/07/21 02:17:38;;;;;;;10.27;8.15;;;;;;;18.64;100.00;101461.88;4903760;29;20650;-75
2021/07/21 02:20:08;;;;;;;9.35;8.18;;;;;;;18.49;100.00;101460.25;4950651;28;20222;-74
2021/07/21 02:22:42;;;;;;;11.00;8.38;;;;;;;18.60;100.00;101450.66;4921017;29;20241;-75
2021/07/21 02:25:50;;;;;;;9.13;8.02;;;;;;;18.63;100.00;101454.78;4883949;29;20233;-74
2021/07/21 02:28:22;;;;;;;9.80;7.78;;;;;;;18.57;100.00;101450.47;4866611;29;20196;-74
2021/07/21 02:30:54;;;;;;;10.57;8.38;;;;;;;18.41;100.00;101454.66;4910139;29;20306;-75
2021/07/21 02:33:32;;;;;;;11.93;8.73;;;;;;;18.42;100.00;101461.78;4934638;29;20568;-75
2021/07/21 02:36:03;;;;;;;12.13;8.40;;;;;;;18.26;100.00;101457.69;4920802;29;20301;-75
2021/07/21 02:38:35;;;;;;;10.02;8.93;;;;;;;18.49;100.00;101451.19;4903496;29;20723;-76
2021/07/21 02:41:04;;;;;;;11.13;8.57;;;;;;;18.37;100.00;101459.13;4918224;29;20211;-75
2021/07/21 02:43:35;;;;;;;9.98;8.45;;;;;;;18.42;100.00;101452.72;4935351;29;20670;-75
2021/07/21 02:46:05;;;;;;;10.30;8.38;;;;;;;18.41;100.00;101454.66;4920039;29;20222;-76
2021/07/21 02:48:31;;;;;;;11.48;8.73;;;;;;;18.53;100.00;101452.19;4918522;29;20267;-75
2021/07/21 02:51:48;;;;;;;10.43;8.75;;;;;;;18.45;100.00;101455.66;4904719;29;20235;-74
2021/07/21 02:55:03;;;;;;;11.40;9.23;;;;;;;18.69;100.00;101451.59;4920276;28;20347;-75
2021/07/21 02:57:43;;;;;;;9.82;8.52;;;;;;;18.41;100.00;101446.41;4934706;29;20250;-75
2021/07/21 03:00:14;;;;;;;12.13;8.95;;;;;;;18.28;100.00;101454.63;4903958;29;20221;-74
2021/07/21 03:02:44;;;;;;;10.85;8.45;;;;;;;18.31;100.00;101452.06;4920844;29;20336;-73
2021/07/21 03:05:13;;;;;;;10.38;8.35;;;;;;;18.48;100.00;101466.06;4915857;28;20607;-75
2021/07/21 03:07:55;;;;;;;10.43;8.70;;;;;;;18.40;100.00;101463.19;4907125;29;20183;-74
2021/07/21 03:10:23;;;;;;;13.00;8.95;;;;;;;18.45;100.00;101461.16;4902919;29;20180;-75
2021/07/21 03:13:08;;;;;;;11.55;8.52;;;;;;;18.24;100.00;101459.94;4920356;29;20207;-75
2021/07/21 03:15:45;;;;;;;13.65;8.95;;;;;;;18.27;100.00;101453.00;4934134;29;20773;-75
2021/07/21 03:18:17;;;;;;;9.98;8.52;;;;;;;18.20;100.00;101441.56;4931500;29;20665;-75
2021/07/21 03:20:47;;;;;;;10.68;9.02;;;;;;;18.22;100.00;101456.66;4908908;29;20822;-74
2021/07/21 03:23:14;;;;;;;12.60;8.55;;;;;;;18.40;100.00;101444.75;4902681;29;20250;-76
2021/07/21 03:25:52;;;;;;;10.85;9.23;;;;;;;18.40;100.00;101447.50;4927748;28;20215;-75
2021/07/21 03:28:20;;;;;;;10.48;8.80;;;;;;;18.49;100.00;101446.47;4921249;29;20187;-75
2021/07/21 03:30:59;;;;;;;9.82;8.63;;;;;;;18.43;100.00;101448.84;4901052;29;20227;-75
2021/07/21 03:33:30;;;;;;;10.65;8.25;;;;;;;18.51;100.00;101446.19;4934016;29;20203;-74
2021/07/21 03:36:07;;;;;;;14.02;9.10;;;;;;;18.47;100.00;101450.69;4924375;29;20253;-75
2021/07/21 03:39:07;;;;;;;9.35;8.23;;;;;;;18.46;100.00;101446.31;4933861;29;20204;-75
2021/07/21 03:41:47;;;;;;;11.38;9.00;;;;;;;18.47;100.00;101445.16;4919482;29;20703;-75
2021/07/21 03:44:13;;;;;;;11.50;8.85;;;;;;;18.50;100.00;101447.31;4917336;29;20302;-77
2021/07/21 03:46:41;;;;;;;10.93;8.65;;;;;;;18.59;100.00;101445.50;4931923;29;20226;-76
2021/07/21 03:49:11;;;;;;;11.52;9.02;;;;;;;18.20;100.00;101453.41;4909192;29;20625;-76
2021/07/21 03:51:47;;;;;;;10.60;9.50;;;;;;;18.16;100.00;101460.59;4903023;29;20216;-73
2021/07/21 03:54:31;;;;;;;12.80;9.30;;;;;;;18.05;100.00;101463.81;4938309;29;20775;-76
2021/07/21 03:57:08;;;;;;;12.82;9.50;;;;;;;18.26;100.00;101457.69;4929016;29;20219;-76
2021/07/21 03:59:37;;;;;;;10.82;8.82;;;;;;;18.35;100.00;101453.13;4921098;29;20239;-75
2021/07/21 04:02:06;;;;;;;12.10;9.50;;;;;;;18.16;100.00;101471.59;4917270;29;20747;-74
2021/07/21 04:04:32;;;;;;;11.32;9.57;;;;;;;18.01;100.00;101461.97;4923180;29;20203;-74
2021/07/21 04:07:03;;;;;;;11.95;9.45;;;;;;;17.91;100.00;101471.22;4916638;29;20266;-74
2021/07/21 04:09:41;;;;;;;11.40;9.55;;;;;;;18.06;100.00;101467.38;4909180;29;20188;-74
2021/07/21 04:12:13;;;;;;;12.20;9.60;;;;;;;18.17;100.00;101464.19;4921566;28;20281;-74
2021/07/21 04:14:52;;;;;;;10.60;9.10;;;;;;;18.06;100.00;101472.88;4911622;29;20190;-76
2021/07/21 04:17:37;;;;;;;10.88;9.15;;;;;;;18.23;100.00;101473.97;4917017;29;20224;-76
2021/07/21 04:20:10;;;;;;;10.63;8.98;;;;;;;18.28;100.00;101476.66;4928907;29;20216;-75
2021/07/21 04:22:37;;;;;;;12.07;9.38;;;;;;;18.41;100.00;101475.84;4915955;29;20180;-75
2021/07/21 04:25:04;;;;;;;12.80;10.00;;;;;;;18.49;100.00;101474.00;4933668;29;20188;-74
2021/07/21 04:27:33;;;;;;;11.73;9.25;;;;;;;18.46;100.00;101490.34;4904994;29;20230;-74
2021/07/21 04:30:16;;;;;;;12.02;9.77;;;;;;;18.56;100.00;101485.44;4908428;29;20198;-76
2021/07/21 04:32:46;;;;;;;12.45;8.65;;;;;;;18.45;100.00;101488.69;4933852;29;20203;-76
2021/07/21 04:35:16;;;;;;;10.90;9.10;;;;;;;18.52;100.00;101497.38;4919937;28;20190;-74
2021/07/21 04:38:04;;;;;;;15.00;9.90;;;;;;;18.64;100.00;101497.69;4920074;29;20283;-74
2021/07/21 04:40:53;;;;;;;11.38;8.77;;;;;;;18.64;100.00;101490.25;4927543;29;20223;-75
2021/07/21 04:43:41;;;;;;;14.68;9.63;;;;;;;18.55;100.00;101494.00;4933164;29;20227;-75
2021/07/21 04:46:13;;;;;;;11.10;9.32;;;;;;;18.50;100.00;101503.19;4932975;29;20228;-75
2021/07/21 04:48:40;;;;;;;13.45;9.52;;;;;;;18.53;100.00;101502.56;4932789;29;20184;-75
2021/07/21 04:51:16;;;;;;;11.50;9.80;;;;;;;18.38;100.00;101504.78;4918101;29;20259;-76
2021/07/21 04:53:43;;;;;;;11.57;9.70;;;;;;;18.62;100.00;101502.66;4917134;29;20752;-74
2021/07/21 04:56:13;;;;;;;12.55;10.52;;;;;;;18.54;100.00;101512.44;4917138;29;20615;-76
2021/07/21 04:58:48;;;;;;;12.15;10.27;;;;;;;18.54;100.00;101519.91;4932836;29;20690;-74
2021/07/21 05:01:16;;;;;;;13.38;9.93;;;;;;;18.23;100.00;101516.06;4932630;29;20282;-74
2021/07/21 05:03:47;;;;;;;29.65;24.63;;;;;;;18.47;100.00;101513.16;4904643;29;20727;-74
2021/07/21 05:06:33;;;;;;;39.70;35.50;;;;;;;19.01;100.00;101514.84;4922635;29;20223;-73
2021/07/21 05:08:59;;;;;;;14.52;11.50;;;;;;;18.87;100.00;101514.00;4916773;29;20188;-74
2021/07/21 05:11:29;;;;;;;13.13;11.07;;;;;;;18.65;100.00;101519.41;4916571;29;20227;-74
2021/07/21 05:14:00;;;;;;;14.38;10.60;;;;;;;18.75;100.00;101518.38;4903183;29;20207;-75
2021/07/21 05:16:35;;;;;;;15.93;11.98;;;;;;;18.70;100.00;101512.97;4933813;29;20262;-73
2021/07/21 05:19:03;;;;;;;14.48;11.63;;;;;;;18.85;100.00;101520.97;4942532;28;20258;-74
2021/07/21 05:21:33;;;;;;;13.82;11.55;;;;;;;18.66;100.00;101520.22;4926021;29;20667;-73
2021/07/21 05:23:59;;;;;;;15.82;12.55;;;;;;;18.58;100.00;101524.47;4932738;29;20685;-72
2021/07/21 05:26:26;;;;;;;18.85;12.60;;;;;;;18.73;100.00;101528.88;4916502;29;20230;-74
2021/07/21 05:29:11;;;;;;;16.48;12.02;;;;;;;18.59;100.00;101523.38;4952185;28;20188;-72
2021/07/21 05:32:07;;;;;;;18.45;12.43;;;;;;;18.98;100.00;101521.78;4929738;29;20650;-73
2021/07/21 05:34:32;;;;;;;14.20;11.50;;;;;;;18.93;100.00;101532.88;4938784;28;20230;-74
2021/07/21 05:37:27;;;;;;;16.40;11.07;;;;;;;19.24;100.00;101536.69;4919623;29;20310;-77
2021/07/21 05:39:56;;;;;;;14.68;10.40;;;;;;;19.10;100.00;101535.88;4915055;29;20212;-73
2021/07/21 05:42:41;;;;;;;14.32;11.20;;;;;;;18.95;100.00;101540.84;4917288;29;20363;-75
2021/07/21 05:45:11;;;;;;;14.38;10.88;;;;;;;19.15;100.00;101535.75;4901794;28;20199;-74
2021/07/21 05:47:38;;;;;;;13.25;10.68;;;;;;;18.97;100.00;101539.47;4899781;29;20187;-75
2021/07/21 05:50:07;;;;;;;13.50;10.50;;;;;;;19.40;100.00;101540.75;4901224;29;20270;-75
2021/07/21 05:53:09;;;;;;;16.10;11.10;;;;;;;19.46;100.00;101542.25;4930412;29;20589;-75
2021/07/21 05:55:43;;;;;;;11.75;9.70;;;;;;;19.78;100.00;101546.47;4917268;29;20230;-76
2021/07/21 05:58:14;;;;;;;15.80;10.45;;;;;;;19.98;100.00;101543.28;4932940;29;20185;-77
2021/07/21 06:00:42;;;;;;;13.25;10.43;;;;;;;19.86;100.00;101554.03;4922272;29;20242;-73
2021/07/21 06:03:13;;;;;;;11.32;9.50;;;;;;;19.85;100.00;101554.34;4920843;29;20211;-75
2021/07/21 06:06:06;;;;;;;16.23;9.73;;;;;;;20.09;100.00;101552.91;4905339;29;20244;-74
2021/07/21 06:08:51;;;;;;;13.07;9.15;;;;;;;19.96;100.00;101559.31;4929941;29;20187;-73
2021/07/21 06:11:23;;;;;;;11.55;8.40;;;;;;;20.10;100.00;101558.13;4949870;28;20715;-73
2021/07/21 06:13:50;;;;;;;11.32;8.90;;;;;;;20.12;100.00;101560.56;4951224;29;20692;-76
2021/07/21 06:16:20;;;;;;;11.35;8.23;;;;;;;19.95;100.00;101557.69;4919539;29;20233;-77
2021/07/21 06:18:52;;;;;;;11.73;7.95;;;;;;;20.03;100.00;101556.94;4904468;29;20243;-77
2021/07/21 06:21:23;;;;;;;11.70;8.93;;;;;;;20.36;100.00;101553.59;4905137;29;20223;-77
2021/07/21 06:24:13;;;;;;;10.90;8.27;;;;;;;20.83;100.00;101556.53;4926604;29;20266;-77
2021/07/21 06:26:40;;;;;;;10.35;8.02;;;;;;;20.66;100.00;101556.44;4919074;29;20231;-77
2021/07/21 06:29:44;;;;;;;9.98;8.07;;;;;;;20.25;100.00;101563.28;4925439;29;20414;-77
2021/07/21 06:32:10;;;;;;;10.18;7.72;;;;;;;20.31;100.00;101569.47;4935337;29;20223;-77
2021/07/21 06:34:39;;;;;;;9.15;7.82;;;;;;;20.76;100.00;101558.91;4935648;29;20204;-77
2021/07/21 06:37:15;;;;;;;9.07;7.75;;;;;;;20.75;100.00;101565.59;4906347;29;20230;-78
2021/07/21 06:39:43;;;;;;;8.52;7.10;;;;;;;20.59;100.00;101575.38;4936903;29;20809;-78
2021/07/21 06:42:12;;;;;;;9.82;7.30;;;;;;;20.37;100.00;101580.09;4920800;29;20219;-76
2021/07/21 06:44:47;;;;;;;9.38;6.70;;;;;;;20.23;100.00;101584.03;4923301;29;20624;-77
2021/07/21 06:47:23;;;;;;;9.60;7.25;;;;;;;20.65;100.00;101582.41;4936176;29;20229;-76
2021/07/21 06:50:00;;;;;;;8.98;7.10;;;;;;;20.76;100.00;101585.75;4922323;29;20186;-77
2021/07/21 06:52:27;;;;;;;8.52;7.30;;;;;;;20.70;100.00;101585.06;4918596;29;20243;-77
2021/07/21 06:54:54;;;;;;;10.13;7.63;;;;;;;20.78;100.00;101589.81;4919424;29;20211;-77
2021/07/21 06:57:42;;;;;;;10.77;6.95;;;;;;;20.78;100.00;101597.28;4935005;29;20207;-78
2021/07/21 07:00:15;;;;;;;8.50;7.20;;;;;;;20.50;100.00;101596.59;4920334;29;20238;-78
2021/07/21 07:03:10;;;;;;;9.68;7.00;;;;;;;20.48;100.00;101604.38;4896292;29;20209;-77
2021/07/21 07:05:57;;;;;;;8.73;6.90;;;;;;;20.22;100.00;101601.75;4935343;29;20234;-77
2021/07/21 07:08:41;;;;;;;8.65;6.78;;;;;;;19.93;100.00;101600.50;4922189;29;20721;-77
2021/07/21 07:11:28;;;;;;;8.65;6.97;;;;;;;19.97;100.00;101596.81;4916268;29;20230;-77
2021/07/21 07:13:53;;;;;;;10.07;7.00;;;;;;;20.30;100.00;101603.75;4920139;29;20216;-78
2021/07/21 07:16:19;;;;;;;11.27;6.78;;;;;;;20.41;100.00;101596.84;4918778;29;20222;-77
2021/07/21 07:18:45;;;;;;;7.57;6.88;;;;;;;19.93;100.00;101601.31;4935702;29;20208;-77
2021/07/21 07:21:13;;;;;;;7.78;6.70;;;;;;;20.14;100.00;101602.47;4910349;29;20235;-78
2021/07/21 07:23:41;;;;;;;9.35;7.47;;;;;;;20.27;100.00;101596.09;4935257;29;20207;-76
2021/07/21 07:26:07;;;;;;;8.85;6.93;;;;;;;19.96;100.00;101605.38;4928123;29;20274;-77
2021/07/21 07:28:36;;;;;;;8.98;7.30;;;;;;;19.91;100.00;101602.78;4935609;29;20275;-78
2021/07/21 07:31:04;;;;;;;8.70;6.88;;;;;;;20.23;100.00;101606.13;4935802;29;20247;-77
2021/07/21 07:33:30;;;;;;;8.65;6.53;;;;;;;20.23;100.00;101608.88;4919354;29;20203;-77
2021/07/21 07:35:56;;;;;;;8.82;6.70;;;;;;;20.15;100.00;101617.91;4934722;29;20266;-78
2021/07/21 07:38:21;;;;;;;8.73;6.93;;;;;;;20.23;100.00;101615.22;4936528;29;20188;-78
2021/07/21 07:40:49;;;;;;;8.48;6.80;;;;;;;20.25;100.00;101610.19;4937629;29;20243;-79
2021/07/21 07:43:15;;;;;;;7.85;6.90;;;;;;;20.39;100.00;101610.97;4935951;29;20208;-78
2021/07/21 07:45:41;;;;;;;8.27;6.60;;;;;;;20.52;100.00;101616.41;4919296;29;20231;-79
2021/07/21 07:48:06;;;;;;;9.10;6.82;;;;;;;20.49;100.00;101617.06;4936070;29;20176;-77
2021/07/21 07:50:32;;;;;;;7.90;6.60;;;;;;;20.11;100.00;101614.16;4903735;29;20274;-78
2021/07/21 07:53:02;;;;;;;8.98;6.72;;;;;;;20.24;100.00;101618.81;4938161;29;20199;-78
2021/07/21 07:55:29;;;;;;;8.63;7.40;;;;;;;20.30;100.00;101623.06;4942290;28;20383;-77
2021/07/21 07:57:54;;;;;;;10.15;7.18;;;;;;;20.67;100.00;101618.81;4940608;29;20192;-77
2021/07/21 08:00:20;;;;;;;8.98;6.70;;;;;;;20.04;100.00;101616.50;4925030;29;20239;-78
2021/07/21 08:02:46;;;;;;;9.00;6.65;;;;;;;19.82;100.00;101612.91;4942464;29;20195;-78
2021/07/21 08:05:15;;;;;;;9.00;7.10;;;;;;;20.03;100.00;101608.53;4925401;29;20180;-77
2021/07/21 08:07:40;;;;;;;9.40;6.70;;;;;;;20.66;99.01;101611.69;4930384;29;20239;-76
2021/07/21 08:10:11;;;;;;;8.05;6.38;;;;;;;20.44;100.00;101617.19;4960836;29;20188;-78
2021/07/21 08:12:37;;;;;;;12.15;6.63;;;;;;;20.32;97.86;101607.00;4938333;29;20654;-77
2021/07/21 08:15:03;;;;;;;7.15;6.45;;;;;;;20.68;97.83;101606.66;4934877;29;20258;-77
2021/07/21 08:17:31;;;;;;;10.45;7.03;;;;;;;20.57;97.01;101602.50;4923565;29;20227;-77
2021/07/21 08:19:56;;;;;;;7.43;6.60;;;;;;;20.56;95.44;101611.06;4902610;29;20291;-76
2021/07/21 08:22:22;;;;;;;8.15;6.30;;;;;;;20.53;97.00;101609.78;4933762;29;20752;-78
2021/07/21 08:24:49;;;;;;;8.23;6.90;;;;;;;20.85;96.94;101606.75;4937799;29;20283;-78
2021/07/21 08:27:17;;;;;;;8.73;6.65;;;;;;;20.84;95.04;101602.34;4936241;28;20273;-78
2021/07/21 08:29:43;;;;;;;9.00;6.68;;;;;;;21.41;91.29;101602.13;4936047;29;20688;-77
2021/07/21 08:32:10;;;;;;;7.50;6.65;;;;;;;21.42;93.88;101598.25;4919694;29;20228;-78
2021/07/21 08:34:38;;;;;;;8.10;7.30;;;;;;;21.25;90.64;101604.50;4933752;29;20689;-76
2021/07/21 08:37:06;;;;;;;7.60;6.63;;;;;;;21.05;91.29;101607.00;4923517;29;20219;-78
2021/07/21 08:39:36;;;;;;;9.07;6.65;;;;;;;21.42;89.69;101590.75;4905734;29;20212;-78
2021/07/21 08:42:02;;;;;;;8.05;6.90;;;;;;;21.39;87.74;101596.91;4914456;29;20219;-78
2021/07/21 08:44:28;;;;;;;8.07;6.43;;;;;;;21.52;86.52;101598.78;4935814;29;20740;-78
2021/07/21 08:46:53;;;;;;;7.03;6.32;;;;;;;21.40;86.20;101608.78;4934018;28;20215;-77
2021/07/21 08:49:21;;;;;;;6.75;5.97;;;;;;;21.22;87.93;101620.91;4935924;29;20235;-77
2021/07/21 08:51:49;;;;;;;8.23;6.15;;;;;;;21.40;87.50;101617.91;4904259;29;20639;-78
2021/07/21 08:54:16;;;;;;;8.65;6.22;;;;;;;21.09;86.29;101621.00;4945839;29;20705;-80
2021/07/21 08:56:41;;;;;;;8.68;7.35;;;;;;;20.93;90.40;101622.53;4944614;29;20232;-78
2021/07/21 08:59:07;;;;;;;8.15;6.20;;;;;;;21.25;89.30;101631.34;4943114;29;20215;-77
2021/07/21 09:01:33;;;;;;;9.45;7.15;;;;;;;21.19;89.17;101621.56;4918930;29;20717;-78
2021/07/21 09:04:01;;;;;;;9.60;6.90;;;;;;;21.57;91.14;101617.97;4921712;29;20207;-77
2021/07/21 09:06:27;;;;;;;8.82;6.53;;;;;;;22.07;86.71;101609.78;4924823;29;20259;-78
2021/07/21 09:08:52;;;;;;;9.07;6.95;;;;;;;22.18;87.06;101616.66;4933996;29;20187;-77
2021/07/21 09:11:22;;;;;;;9.32;7.20;;;;;;;21.88;87.34;101615.94;4917389;29;20234;-76
2021/07/21 09:13:48;;;;;;;7.45;6.68;;;;;;;22.04;84.27;101617.91;4917174;29;20426;-75
2021/07/21 09:16:14;;;;;;;8.68;6.85;;;;;;;21.76;87.75;101611.03;4917076;29;20227;-78
2021/07/21 09:18:49;;;;;;;8.25;6.38;;;;;;;21.99;88.77;101606.16;4934649;29;20226;-77
2021/07/21 09:21:16;;;;;;;7.22;6.38;;;;;;;22.36;82.06;101609.94;4919258;29;20233;-78
2021/07/21 09:23:47;;;;;;;9.55;7.07;;;;;;;22.49;83.10;101604.25;4917712;29;20212;-78
2021/07/21 09:26:32;;;;;;;7.68;6.53;;;;;;;22.94;77.78;101603.50;4934698;29;20698;-77
2021/07/21 09:28:59;;;;;;;7.43;6.43;;;;;;;22.97;82.12;101613.16;4920811;29;20235;-78
2021/07/21 09:31:35;;;;;;;7.05;6.00;;;;;;;23.07;77.22;101605.25;4922184;29;20238;-76
2021/07/21 09:34:19;;;;;;;7.80;5.93;;;;;;;23.25;77.82;101604.88;4936614;29;20282;-77
2021/07/21 09:36:44;;;;;;;7.00;6.30;;;;;;;23.68;74.64;101606.31;4936765;29;20241;-77
2021/07/21 09:39:11;;;;;;;7.35;6.20;;;;;;;23.59;73.76;101593.66;4920357;29;20298;-77
2021/07/21 09:41:49;;;;;;;7.60;6.25;;;;;;;23.39;72.72;101618.53;4936131;29;20231;-77
2021/07/21 09:44:17;;;;;;;8.82;6.25;;;;;;;23.22;74.35;101615.81;4920375;29;20231;-76
2021/07/21 09:46:43;;;;;;;6.70;5.78;;;;;;;23.68;74.17;101613.81;4951883;28;20339;-76
2021/07/21 09:49:21;;;;;;;6.95;6.25;;;;;;;23.57;69.45;101616.13;4936037;29;20562;-76
2021/07/21 09:51:49;;;;;;;8.43;6.63;;;;;;;23.30;71.40;101603.88;4921888;29;20731;-76
2021/07/21 09:54:16;;;;;;;6.90;6.20;;;;;;;24.10;68.89;101596.84;4938810;29;20222;-77
2021/07/21 09:56:43;;;;;;;10.10;6.75;;;;;;;24.29;66.24;101608.34;4921940;29;20242;-78
2021/07/21 09:59:17;;;;;;;7.07;6.20;;;;;;;24.21;65.45;101611.97;4937210;29;20270;-77
2021/07/21 10:01:45;;;;;;;7.18;6.38;;;;;;;23.72;66.53;101607.25;4936411;29;20693;-77
2021/07/21 10:04:16;;;;;;;6.75;6.00;;;;;;;24.04;66.07;101609.31;4921787;29;20643;-77
2021/07/21 10:06:44;;;;;;;6.80;6.10;;;;;;;23.96;64.71;101599.09;4905680;29;20231;-77
2021/07/21 10:09:09;;;;;;;6.72;5.95;;;;;;;24.06;68.26;101595.91;4914314;29;20180;-77
2021/07/21 10:11:36;;;;;;;7.57;6.57;;;;;;;23.41;70.29;101607.91;4935489;29;20234;-77
2021/07/21 10:14:01;;;;;;;8.98;6.72;;;;;;;22.90;69.02;101605.31;4937686;29;20202;-77
2021/07/21 10:16:52;;;;;;;7.13;6.00;;;;;;;22.88;73.68;101602.06;4920113;29;20751;-78
2021/07/21 10:19:27;;;;;;;7.38;6.30;;;;;;;23.38;72.21;101601.06;4918185;29;20747;-78
2021/07/21 10:22:03;;;;;;;7.13;6.00;;;;;;;24.02;66.23;101586.63;4922601;29;20907;-79
2021/07/21 10:24:35;;;;;;;8.98;5.97;;;;;;;24.34;66.57;101594.22;4911850;29;20203;-78
2021/07/21 10:27:00;;;;;;;6.93;5.80;;;;;;;24.50;64.37;101590.47;4904061;29;20792;-77
2021/07/21 10:29:28;;;;;;;6.88;5.88;;;;;;;23.82;65.65;101590.19;4935522;29;20176;-78
2021/07/21 10:31:57;;;;;;;6.75;5.90;;;;;;;23.97;60.33;101578.50;4920398;29;20223;-78
2021/07/21 10:34:27;;;;;;;6.03;5.43;;;;;;;24.40;61.78;101588.94;4935911;29;20212;-77
2021/07/21 10:36:53;;;;;;;6.40;5.80;;;;;;;24.35;62.09;101581.97;4935334;29;20227;-78
2021/07/21 10:39:22;;;;;;;5.60;5.10;;;;;;;23.94;65.09;101575.56;4935353;29;20206;-78
2021/07/21 10:41:52;;;;;;;7.75;6.15;;;;;;;23.90;64.22;101580.19;4904055;29;20306;-77
2021/07/21 10:44:18;;;;;;;6.65;5.40;;;;;;;23.65;66.42;101590.31;4919407;29;20204;-78
2021/07/21 10:46:48;;;;;;;7.82;5.72;;;;;;;23.68;65.82;101589.66;4919640;29;20222;-78
2021/07/21 10:49:21;;;;;;;6.75;5.97;;;;;;;23.75;67.09;101584.38;4935431;29;20205;-77
2021/07/21 10:55:02;;;;;;;6.68;5.85;;;;;;;23.67;64.09;101582.47;4913435;29;20228;-77
2021/07/21 11:00:42;;;;;;;8.18;5.90;;;;;;;23.36;64.99;101585.91;4901750;29;20236;-76
2021/07/21 11:03:25;;;;;;;8.40;6.07;;;;;;;23.69;66.40;101580.16;4904620;29;20681;-79
2021/07/21 11:06:07;;;;;;;6.68;5.75;;;;;;;23.59;61.50;101580.56;4936992;29;20619;-78
2021/07/21 11:08:33;;;;;;;6.40;5.80;;;;;;;23.71;61.87;101583.41;4955053;29;20196;-79
2021/07/21 11:11:17;;;;;;;8.25;6.07;;;;;;;24.09;62.13;101578.56;4920664;29;20266;-78
2021/07/21 11:13:55;;;;;;;7.05;5.90;;;;;;;23.69;63.53;101596.81;4935099;29;20215;-78
2021/07/21 11:16:44;;;;;;;9.70;6.18;;;;;;;23.64;65.38;101585.94;4919785;29;20719;-78
2021/07/21 11:19:34;;;;;;;8.02;6.40;;;;;;;23.23;68.43;101579.41;4935229;29;20207;-77
2021/07/21 11:22:07;;;;;;;8.55;6.38;;;;;;;23.15;68.49;101587.78;4934372;29;20780;-77
2021/07/21 11:25:09;;;;;;;7.85;6.47;;;;;;;22.70;72.44;101590.53;4919813;29;20211;-77
2021/07/21 11:27:52;;;;;;;9.32;6.82;;;;;;;22.84;72.84;101590.00;4935650;29;20218;-75
2021/07/21 11:30:44;;;;;;;7.60;6.80;;;;;;;22.61;74.77;101586.94;4907505;29;20720;-75
2021/07/21 11:33:49;;;;;;;8.07;6.53;;;;;;;22.36;78.38;101590.56;4931175;29;20278;-76
2021/07/21 11:36:39;;;;;;;8.00;6.43;;;;;;;22.59;77.38;101592.00;4934543;29;20234;-73
2021/07/21 11:39:07;;;;;;;8.30;6.75;;;;;;;22.99;76.30;101589.47;4934128;29;20227;-72
2021/07/21 11:41:47;;;;;;;7.05;6.05;;;;;;;23.53;73.11;101588.56;4902546;29;20788;-73
2021/07/21 11:44:35;;;;;;;7.80;6.47;;;;;;;23.50;72.30;101597.56;4934163;29;20207;-72
2021/07/21 11:47:09;;;;;;;8.50;6.78;;;;;;;23.56;71.72;101590.69;4919140;29;20223;-72
2021/07/21 11:49:39;;;;;;;8.30;6.90;;;;;;;23.78;70.25;101592.03;4932995;29;20187;-73
2021/07/21 11:52:05;;;;;;;8.95;6.35;;;;;;;;;;4918367;29;20231;-73